DAUO/ELU METAR and TAF weather

Enter ICAO airport designator
Station Type Date Time Source
DAUO METAR 2021/09/20 05:00 UTC NOAA

DAUO 200500Z 11011KT 080V140 9999 FEW046 SCT100 25/22 Q1012


Station Type Date Time Source
DAUO Decoded METAR 2021/09/20 05:00 UTC NOAA

El Oued, Algeria (DAUO) 33-30N 006-07E 63M
Sep 20, 2021 - 01:00 AM EDT / 2021.09.20 0500 UTC
Wind: from the ESE (110 degrees) at 13 MPH (11 KT) (direction variable):0
Visibility: greater than 7 mile(s):0
Sky conditions: partly cloudy
Temperature: 77 F (25 C)
Dew Point: 71 F (22 C)
Relative Humidity: 83%
Pressure (altimeter): 29.88 in. Hg (1012 hPa)
ob: DAUO 200500Z 11011KT 080V140 9999 FEW046 SCT100 25/22 Q1012
cycle: 5

Station Type Date Time Source
DAUO TAF 2021/07/18 12:00 UTC NOAA

TAF DAUO 181100Z 1812/1821 10010KT CAVOK

Example: see airport list